createdAt,value
2022-11-02T00:01:25.732Z,10.00
2022-11-02T00:02:58.746Z,10.00
2022-11-02T00:04:31.652Z,10.10
2022-11-02T00:06:04.604Z,10.10
2022-11-02T00:07:36.379Z,10.10
2022-11-02T00:09:10.775Z,10.20
2022-11-02T00:10:43.525Z,10.20
2022-11-02T00:12:16.319Z,10.20
2022-11-02T00:13:49.082Z,10.30
2022-11-02T00:15:22.077Z,10.30
2022-11-02T00:16:54.876Z,10.40
2022-11-02T00:18:28.274Z,10.30
2022-11-02T00:20:03.227Z,10.40
2022-11-02T00:21:36.301Z,10.40
2022-11-02T00:23:10.814Z,10.40
2022-11-02T00:24:45.353Z,10.50
2022-11-02T00:26:17.648Z,10.50
2022-11-02T00:27:52.624Z,10.50
2022-11-02T00:29:24.671Z,10.60
2022-11-02T00:30:57.671Z,10.60
2022-11-02T00:32:29.665Z,10.60
2022-11-02T00:34:02.466Z,10.60
2022-11-02T00:35:35.504Z,10.50
2022-11-02T00:37:08.242Z,10.50
2022-11-02T00:38:41.187Z,10.50
2022-11-02T00:40:15.450Z,10.50
2022-11-02T00:41:48.158Z,10.50
2022-11-02T00:43:19.931Z,10.50
2022-11-02T00:44:52.766Z,10.50
2022-11-02T00:46:25.590Z,10.50
2022-11-02T00:47:58.287Z,10.50
2022-11-02T00:49:31.201Z,10.50
2022-11-02T00:51:07.385Z,10.40
2022-11-02T00:52:40.366Z,10.40
2022-11-02T00:54:13.137Z,10.40
2022-11-02T00:55:47.549Z,10.40
2022-11-02T00:57:20.320Z,10.40
2022-11-02T00:58:53.071Z,10.50
2022-11-02T01:00:25.842Z,10.50
2022-11-02T01:01:57.699Z,10.50
2022-11-02T01:03:30.783Z,10.90
2022-11-02T01:05:03.635Z,10.60
2022-11-02T01:06:38.631Z,10.50
2022-11-02T01:08:11.349Z,10.50
2022-11-02T01:09:44.338Z,10.40
2022-11-02T01:11:19.747Z,10.40
2022-11-02T01:12:52.462Z,10.40
2022-11-02T01:14:25.174Z,10.40
2022-11-02T01:15:57.957Z,10.40
2022-11-02T01:17:30.743Z,10.40
2022-11-02T01:19:03.610Z,10.40
2022-11-02T01:20:36.390Z,10.40
2022-11-02T01:22:09.183Z,10.40
2022-11-02T01:23:42.074Z,10.40
2022-11-02T01:25:15.066Z,10.40
2022-11-02T01:26:52.424Z,10.40
2022-11-02T01:28:25.161Z,10.50
2022-11-02T01:29:57.980Z,10.40
2022-11-02T01:31:30.668Z,10.40
2022-11-02T01:33:05.919Z,10.40
2022-11-02T01:34:38.601Z,10.30
2022-11-02T01:36:10.411Z,10.30
2022-11-02T01:37:43.177Z,10.30
2022-11-02T01:39:16.162Z,10.30
2022-11-02T01:40:48.923Z,10.30
2022-11-02T01:42:26.200Z,10.30
2022-11-02T01:44:00.590Z,10.30
2022-11-02T01:45:33.824Z,10.30
2022-11-02T01:47:08.657Z,10.40
2022-11-02T01:48:43.800Z,10.30
2022-11-02T01:50:17.850Z,10.30
2022-11-02T01:51:52.320Z,10.20
2022-11-02T01:53:25.044Z,10.30
2022-11-02T01:55:00.080Z,10.20
2022-11-02T01:56:33.908Z,10.30
2022-11-02T01:58:09.919Z,10.20
2022-11-02T01:59:45.831Z,10.30
2022-11-02T02:01:18.651Z,10.20
2022-11-02T02:02:55.052Z,10.20
2022-11-02T02:04:28.099Z,10.20
2022-11-02T02:06:03.866Z,10.10
2022-11-02T02:07:37.606Z,10.20
2022-11-02T02:09:10.064Z,10.10
2022-11-02T02:10:42.913Z,10.20
2022-11-02T02:12:15.657Z,10.10
2022-11-02T02:13:49.822Z,10.10
2022-11-02T02:15:24.743Z,10.10
2022-11-02T02:17:07.353Z,10.10
2022-11-02T02:18:44.709Z,10.10
2022-11-02T02:20:21.550Z,10.10
2022-11-02T02:21:58.494Z,10.10
2022-11-02T02:23:38.624Z,10.10
2022-11-02T02:25:22.768Z,10.20
2022-11-02T02:27:18.163Z,10.20
2022-11-02T02:28:53.753Z,10.30
2022-11-02T02:30:28.926Z,10.30
2022-11-02T02:32:03.280Z,10.40
2022-11-02T02:33:37.595Z,10.40
2022-11-02T02:35:14.343Z,10.40
2022-11-02T02:36:51.277Z,10.40
2022-11-02T02:38:30.423Z,10.50
2022-11-02T02:40:05.955Z,10.50
2022-11-02T02:41:40.126Z,10.50
2022-11-02T02:43:14.836Z,10.50
2022-11-02T02:44:51.336Z,10.40
2022-11-02T02:46:28.310Z,10.40
2022-11-02T02:48:02.259Z,10.30
2022-11-02T02:49:37.691Z,10.10
2022-11-02T02:51:11.195Z,10.10
2022-11-02T02:52:44.866Z,10.00
2022-11-02T02:54:20.262Z,9.90
2022-11-02T02:55:52.692Z,9.80
2022-11-02T02:57:27.341Z,9.80
2022-11-02T02:59:02.364Z,9.70
2022-11-02T03:00:37.123Z,9.60
2022-11-02T03:02:13.823Z,9.50
2022-11-02T03:03:47.130Z,9.50
2022-11-02T03:05:24.038Z,9.40
2022-11-02T03:06:59.564Z,9.40
2022-11-02T03:08:33.067Z,9.30
2022-11-02T03:10:09.234Z,9.30
2022-11-02T03:11:48.232Z,9.20
2022-11-02T03:13:33.471Z,9.10
2022-11-02T03:15:11.041Z,9.10
2022-11-02T03:16:51.042Z,9.00
2022-11-02T03:18:31.886Z,8.90
2022-11-02T03:20:11.094Z,8.90
2022-11-02T03:21:44.865Z,8.90
2022-11-02T03:23:20.516Z,8.80
2022-11-02T03:24:56.353Z,8.90
2022-11-02T03:26:34.721Z,8.80
2022-11-02T03:28:11.215Z,8.80
2022-11-02T03:29:46.691Z,8.80
2022-11-02T03:31:24.386Z,8.80
2022-11-02T03:33:03.206Z,8.70
2022-11-02T03:34:38.483Z,8.70
2022-11-02T03:36:11.872Z,8.70
2022-11-02T03:37:47.613Z,8.70
2022-11-02T03:39:23.122Z,8.70
2022-11-02T03:40:57.147Z,8.60
2022-11-02T03:42:33.348Z,8.60
2022-11-02T03:44:07.346Z,8.60
2022-11-02T03:45:41.687Z,8.50
2022-11-02T03:47:17.329Z,8.50
2022-11-02T03:48:52.125Z,8.40
2022-11-02T03:50:25.136Z,8.40
2022-11-02T03:51:59.447Z,8.40
2022-11-02T03:53:35.644Z,8.50
2022-11-02T03:55:10.220Z,8.50
2022-11-02T03:56:43.954Z,8.40
2022-11-02T03:58:16.840Z,8.50
2022-11-02T03:59:48.579Z,8.50
2022-11-02T04:01:21.943Z,8.40
2022-11-02T04:02:56.403Z,8.50
2022-11-02T04:04:30.500Z,8.40
2022-11-02T04:06:02.251Z,8.50
2022-11-02T04:07:58.548Z,8.40
2022-11-02T04:09:32.564Z,8.30
2022-11-02T04:11:24.178Z,8.40
2022-11-02T04:13:14.271Z,8.30
2022-11-02T04:14:47.770Z,8.30
2022-11-02T04:16:27.671Z,8.30
2022-11-02T04:18:18.622Z,8.30
2022-11-02T04:22:36.426Z,8.20
2022-11-02T04:24:27.022Z,8.10
2022-11-02T04:25:59.837Z,8.10
2022-11-02T04:27:35.178Z,8.00
2022-11-02T04:29:07.983Z,8.00
2022-11-02T04:30:40.754Z,8.00
2022-11-02T04:32:12.583Z,8.00
2022-11-02T04:33:45.295Z,8.00
2022-11-02T04:35:17.084Z,7.90
2022-11-02T04:36:49.859Z,7.90
2022-11-02T04:38:41.551Z,7.90
2022-11-02T04:40:13.418Z,7.90
2022-11-02T04:41:46.931Z,7.90
2022-11-02T04:43:19.680Z,7.90
2022-11-02T04:44:52.432Z,7.80
2022-11-02T04:46:26.343Z,7.80
2022-11-02T04:48:01.405Z,7.80
2022-11-02T04:49:34.291Z,7.90
2022-11-02T04:51:06.341Z,7.80
2022-11-02T04:52:39.125Z,7.80
2022-11-02T04:54:13.177Z,7.80
2022-11-02T04:55:47.290Z,7.80
2022-11-02T04:57:28.647Z,7.80
2022-11-02T04:59:02.578Z,7.80
2022-11-02T05:00:34.627Z,7.90
2022-11-02T05:02:07.446Z,8.00
2022-11-02T05:03:40.259Z,7.90
2022-11-02T05:05:16.079Z,7.90
2022-11-02T05:06:48.897Z,7.90
2022-11-02T05:08:20.683Z,7.90
2022-11-02T05:09:54.814Z,7.90
2022-11-02T05:11:27.551Z,8.00
2022-11-02T05:13:00.906Z,8.10
2022-11-02T05:14:32.691Z,8.10
2022-11-02T05:16:05.990Z,8.10
2022-11-02T05:17:37.757Z,8.10
2022-11-02T05:19:11.160Z,8.20
2022-11-02T05:20:44.142Z,8.10
2022-11-02T05:22:16.923Z,8.10
2022-11-02T05:23:49.830Z,8.00
2022-11-02T05:25:27.412Z,8.00
2022-11-02T05:27:00.945Z,8.00
2022-11-02T05:28:33.859Z,8.00
2022-11-02T05:30:07.658Z,8.10
2022-11-02T05:44:39.616Z,8.10
2022-11-02T05:46:14.742Z,8.10
2022-11-02T05:54:15.633Z,8.20
2022-11-02T05:55:48.370Z,7.90
2022-11-02T05:57:21.892Z,7.80
2022-11-02T05:59:10.471Z,7.80
2022-11-02T06:00:43.513Z,7.80
2022-11-02T06:02:16.307Z,7.80
2022-11-02T06:03:53.222Z,7.80
2022-11-02T06:05:26.943Z,7.80
2022-11-02T06:07:00.472Z,7.80
2022-11-02T06:08:33.660Z,7.80
2022-11-02T06:10:07.013Z,7.80
2022-11-02T06:11:39.844Z,7.80
2022-11-02T06:13:11.579Z,7.80
2022-11-02T06:14:45.773Z,7.80
2022-11-02T06:16:22.745Z,7.80
2022-11-02T06:17:55.937Z,7.80
2022-11-02T06:19:28.624Z,7.80
2022-11-02T06:21:01.510Z,7.80
2022-11-02T06:22:39.430Z,7.80
2022-11-02T06:24:12.183Z,7.80
2022-11-02T06:25:45.548Z,7.80
2022-11-02T06:27:18.347Z,7.90
2022-11-02T06:28:51.070Z,7.90
2022-11-02T06:30:25.436Z,7.90
2022-11-02T06:31:58.386Z,7.90
2022-11-02T06:33:31.173Z,7.90
2022-11-02T06:35:03.972Z,8.00
2022-11-02T06:36:37.092Z,8.00
2022-11-02T06:38:09.832Z,8.10
2022-11-02T06:39:42.536Z,8.10
2022-11-02T06:41:15.312Z,8.10
2022-11-02T06:43:14.980Z,8.10
2022-11-02T06:44:41.004Z,8.20
2022-11-02T06:46:15.122Z,8.30
2022-11-02T06:47:49.524Z,8.20
2022-11-02T06:49:22.485Z,8.30
2022-11-02T06:50:55.170Z,8.30
2022-11-02T06:52:27.988Z,8.40
2022-11-02T06:54:05.923Z,8.50
2022-11-02T06:55:41.115Z,8.40
2022-11-02T06:57:13.862Z,8.50
2022-11-02T06:58:46.555Z,8.50
2022-11-02T07:00:22.708Z,8.50
2022-11-02T07:01:58.126Z,8.60
2022-11-02T07:03:31.524Z,8.60
2022-11-02T07:05:03.426Z,8.60
2022-11-02T07:06:36.311Z,8.70
2022-11-02T07:08:09.290Z,8.70
2022-11-02T07:09:41.962Z,8.70
2022-11-02T07:11:15.554Z,8.70
2022-11-02T07:12:48.372Z,8.70
2022-11-02T07:14:21.109Z,8.70
2022-11-02T07:15:54.324Z,8.80
2022-11-02T07:17:32.218Z,8.80
2022-11-02T07:19:05.212Z,8.80
2022-11-02T07:20:38.387Z,9.00
2022-11-02T07:22:11.137Z,8.90
2022-11-02T07:23:43.898Z,8.90
2022-11-02T07:25:18.450Z,8.90
2022-11-02T07:26:51.676Z,9.00
2022-11-02T07:28:24.385Z,9.10
2022-11-02T07:29:58.235Z,9.20
2022-11-02T07:31:32.510Z,9.20
2022-11-02T07:33:06.949Z,9.30
2022-11-02T07:34:39.914Z,9.50
2022-11-02T07:36:13.189Z,9.70
2022-11-02T07:37:45.921Z,9.80
2022-11-02T07:39:18.957Z,9.90
2022-11-02T07:40:51.702Z,9.90
2022-11-02T07:42:24.458Z,10.10
2022-11-02T07:43:57.191Z,10.20
2022-11-02T07:45:30.395Z,10.30
2022-11-02T07:47:03.186Z,10.50
2022-11-02T07:48:37.242Z,10.60
2022-11-02T07:50:10.089Z,10.60
2022-11-02T07:51:43.435Z,10.70
2022-11-02T07:53:16.148Z,10.80
2022-11-02T07:54:48.859Z,10.80
2022-11-02T07:56:21.575Z,10.80
2022-11-02T07:57:55.097Z,10.80
2022-11-02T07:59:27.767Z,10.80
2022-11-02T08:01:01.048Z,10.90
2022-11-02T08:02:33.828Z,11.00
2022-11-02T08:04:07.995Z,11.20
2022-11-02T08:05:41.943Z,11.40
2022-11-02T08:07:14.656Z,11.40
2022-11-02T08:08:47.423Z,11.50
2022-11-02T08:10:20.078Z,11.60
2022-11-02T08:11:59.799Z,11.60
2022-11-02T08:13:33.058Z,11.70
2022-11-02T08:15:07.703Z,11.80
2022-11-02T08:16:40.629Z,11.90
2022-11-02T08:18:14.815Z,12.00
2022-11-02T08:19:48.919Z,12.00
2022-11-02T08:21:21.663Z,12.10
2022-11-02T08:22:54.418Z,12.20
2022-11-02T08:24:27.154Z,12.20
2022-11-02T08:26:00.333Z,12.20
2022-11-02T08:27:33.109Z,12.10
2022-11-02T08:29:05.798Z,12.20
2022-11-02T08:30:38.945Z,12.20
2022-11-02T08:32:11.704Z,12.30
2022-11-02T08:33:44.596Z,12.40
2022-11-02T08:35:18.703Z,12.40
2022-11-02T08:36:51.507Z,12.50
2022-11-02T08:38:24.219Z,12.60
2022-11-02T08:39:56.966Z,12.70
2022-11-02T08:41:29.733Z,12.80
2022-11-02T08:43:03.433Z,13.00
2022-11-02T08:44:40.078Z,13.20
2022-11-02T08:46:16.476Z,13.30
2022-11-02T08:47:49.857Z,13.50
2022-11-02T08:49:22.654Z,13.80
2022-11-02T08:50:57.417Z,14.00
2022-11-02T08:52:40.315Z,14.20
2022-11-02T08:54:13.611Z,14.30
2022-11-02T08:55:46.353Z,14.30
2022-11-02T08:57:19.127Z,14.30
2022-11-02T08:58:51.883Z,14.20
2022-11-02T09:00:25.655Z,14.30
2022-11-02T09:01:58.482Z,14.20
2022-11-02T09:03:32.141Z,14.20
2022-11-02T09:05:05.081Z,14.20
2022-11-02T09:06:39.135Z,14.10
2022-11-02T09:08:12.726Z,14.10
2022-11-02T09:09:45.592Z,14.20
2022-11-02T09:11:18.324Z,14.20
2022-11-02T09:12:51.020Z,14.20
2022-11-02T09:14:23.904Z,14.00
2022-11-02T09:15:58.009Z,13.90
2022-11-02T09:17:30.856Z,13.80
2022-11-02T09:19:04.309Z,13.80
2022-11-02T09:20:37.468Z,13.70
2022-11-02T09:22:12.051Z,13.70
2022-11-02T09:23:48.507Z,13.70
2022-11-02T09:25:21.263Z,13.70
2022-11-02T09:26:54.219Z,13.90
2022-11-02T09:28:27.038Z,13.90
2022-11-02T09:29:59.846Z,14.00
2022-11-02T09:31:32.645Z,13.90
2022-11-02T09:33:06.794Z,13.90
2022-11-02T09:34:40.000Z,13.80
2022-11-02T09:36:12.799Z,13.60
2022-11-02T09:37:50.893Z,13.50
2022-11-02T09:39:24.852Z,13.40
2022-11-02T09:41:03.067Z,13.50
2022-11-02T09:42:39.767Z,13.60
2022-11-02T09:44:14.894Z,13.60
2022-11-02T09:45:52.941Z,13.70
2022-11-02T09:49:20.873Z,14.00
2022-11-02T09:50:59.243Z,14.10
2022-11-02T09:52:37.359Z,14.00
2022-11-02T09:54:17.423Z,14.20
2022-11-02T09:55:51.741Z,14.40
2022-11-02T09:57:28.719Z,14.60
2022-11-02T09:59:03.146Z,14.70
2022-11-02T10:00:39.320Z,14.90
2022-11-02T10:02:18.035Z,15.10
2022-11-02T10:04:07.809Z,15.10
2022-11-02T10:05:42.970Z,15.20
2022-11-02T10:07:19.496Z,15.20
2022-11-02T10:08:55.610Z,15.20
2022-11-02T10:10:33.063Z,15.20
2022-11-02T10:12:07.994Z,15.20
2022-11-02T10:13:43.416Z,15.30
2022-11-02T10:15:18.129Z,15.10
2022-11-02T10:16:54.401Z,15.10
2022-11-02T10:18:27.810Z,15.00
2022-11-02T10:20:03.643Z,15.00
2022-11-02T10:21:39.240Z,14.90
2022-11-02T10:23:15.905Z,15.00
2022-11-02T10:24:49.600Z,15.10
2022-11-02T10:26:24.968Z,15.20
2022-11-02T10:28:02.113Z,15.30
2022-11-02T10:29:43.382Z,15.40
2022-11-02T10:31:21.698Z,15.40
2022-11-02T10:32:55.699Z,15.50
2022-11-02T10:34:28.949Z,15.50
2022-11-02T10:36:19.265Z,15.50
2022-11-02T10:38:16.693Z,15.50
2022-11-02T10:39:55.568Z,15.60
2022-11-02T10:41:35.720Z,15.50
2022-11-02T10:43:14.759Z,15.40
2022-11-02T10:44:55.269Z,15.40
2022-11-02T10:46:35.343Z,15.40
2022-11-02T10:48:12.894Z,15.50
2022-11-02T10:49:56.347Z,15.40
2022-11-02T10:51:30.000Z,15.40
2022-11-02T10:53:27.390Z,15.50
2022-11-02T10:54:56.114Z,15.50
2022-11-02T10:56:31.000Z,15.40
2022-11-02T10:58:06.024Z,15.40
2022-11-02T10:59:39.162Z,15.40
2022-11-02T11:01:13.807Z,15.50
2022-11-02T11:02:46.610Z,15.40
2022-11-02T11:04:23.585Z,15.40
2022-11-02T11:05:59.140Z,15.30
2022-11-02T11:07:31.909Z,15.30
2022-11-02T11:09:06.290Z,15.50
2022-11-02T11:10:39.352Z,15.60
2022-11-02T11:12:20.538Z,15.70
2022-11-02T11:15:58.342Z,15.70
2022-11-02T11:19:40.965Z,15.70
2022-11-02T11:21:14.316Z,15.80
2022-11-02T11:22:47.064Z,16.00
2022-11-02T11:24:21.500Z,16.00
2022-11-02T11:25:55.598Z,15.90
2022-11-02T11:27:28.392Z,15.80
2022-11-02T11:29:01.132Z,15.70
2022-11-02T11:30:58.924Z,15.40
2022-11-02T11:32:31.029Z,15.50
2022-11-02T11:34:03.783Z,15.50
2022-11-02T11:35:38.546Z,15.60
2022-11-02T11:37:12.587Z,15.80
2022-11-02T11:38:47.356Z,15.80
2022-11-02T11:40:22.507Z,15.80
2022-11-02T11:41:55.425Z,15.70
2022-11-02T11:43:29.157Z,15.80
2022-11-02T11:45:03.999Z,15.70
2022-11-02T11:46:42.533Z,15.80
2022-11-02T11:48:26.293Z,15.70
2022-11-02T11:50:08.753Z,15.80
2022-11-02T11:51:50.222Z,15.80
2022-11-02T11:53:23.984Z,15.70
2022-11-02T11:54:57.802Z,15.90
2022-11-02T11:56:30.603Z,16.10
2022-11-02T11:58:07.475Z,16.20
2022-11-02T11:59:46.304Z,16.10
2022-11-02T12:01:20.061Z,16.10
2022-11-02T12:03:06.136Z,16.10
2022-11-02T12:04:39.267Z,16.00
2022-11-02T12:06:18.391Z,16.00
2022-11-02T12:08:02.316Z,15.90
2022-11-02T12:09:37.265Z,15.90
2022-11-02T12:11:25.600Z,15.90
2022-11-02T12:13:04.671Z,15.80
2022-11-02T12:14:41.964Z,15.70
2022-11-02T12:16:17.858Z,15.60
2022-11-02T12:18:03.022Z,15.40
2022-11-02T12:19:43.843Z,15.30
2022-11-02T12:21:22.967Z,15.30
2022-11-02T12:23:00.119Z,15.20
2022-11-02T12:24:47.801Z,15.20
2022-11-02T12:26:28.422Z,15.10
2022-11-02T12:28:09.056Z,15.10
2022-11-02T12:29:48.808Z,15.00
2022-11-02T12:31:26.806Z,14.90
2022-11-02T12:33:17.437Z,14.90
2022-11-02T12:35:27.093Z,14.80
2022-11-02T12:37:35.346Z,14.70
2022-11-02T12:39:03.575Z,14.60
2022-11-02T12:40:44.207Z,14.50
2022-11-02T12:42:23.787Z,14.50
2022-11-02T12:44:00.547Z,14.60
2022-11-02T12:45:41.105Z,14.60
2022-11-02T12:47:21.326Z,14.60
2022-11-02T12:49:03.282Z,14.70
2022-11-02T12:50:51.801Z,14.70
2022-11-02T12:52:31.298Z,14.80
2022-11-02T12:54:07.454Z,14.90
2022-11-02T12:55:43.010Z,15.00
2022-11-02T12:57:18.123Z,15.00
2022-11-02T12:58:51.005Z,15.00
2022-11-02T13:00:23.987Z,15.00
2022-11-02T13:01:58.344Z,15.10
2022-11-02T13:03:39.462Z,15.10
2022-11-02T13:05:14.997Z,15.10
2022-11-02T13:06:50.302Z,15.20
2022-11-02T13:08:24.808Z,15.20
2022-11-02T13:10:01.601Z,15.30
2022-11-02T13:11:37.140Z,15.20
2022-11-02T13:13:14.688Z,15.10
2022-11-02T13:14:48.464Z,15.10
2022-11-02T13:16:25.839Z,15.10
2022-11-02T13:18:00.570Z,15.10
2022-11-02T13:19:35.494Z,15.20
2022-11-02T13:21:08.467Z,15.30
2022-11-02T13:22:44.253Z,15.40
2022-11-02T13:24:18.965Z,15.50
2022-11-02T13:25:53.592Z,15.70
2022-11-02T13:27:37.167Z,15.80
2022-11-02T13:29:14.379Z,15.90
2022-11-02T13:30:47.811Z,16.10
2022-11-02T13:32:23.691Z,16.20
2022-11-02T13:33:57.822Z,16.30
2022-11-02T13:35:33.888Z,16.40
2022-11-02T13:37:09.182Z,16.30
2022-11-02T13:38:45.588Z,16.30
2022-11-02T13:40:21.062Z,16.30
2022-11-02T13:42:11.082Z,16.20
2022-11-02T13:43:58.193Z,16.10
2022-11-02T13:45:39.635Z,16.00
2022-11-02T13:47:23.029Z,16.00
2022-11-02T13:48:59.491Z,15.90
2022-11-02T13:50:34.065Z,15.80
2022-11-02T13:52:13.987Z,15.70
2022-11-02T13:53:53.341Z,15.60
2022-11-02T13:55:27.053Z,15.60
2022-11-02T13:56:59.902Z,15.50
2022-11-02T13:58:34.180Z,15.50
2022-11-02T14:00:08.323Z,15.50
2022-11-02T14:01:42.081Z,15.40
2022-11-02T14:03:17.430Z,15.40
2022-11-02T14:04:50.241Z,15.40
2022-11-02T14:06:23.687Z,15.30
2022-11-02T14:08:00.298Z,15.30
2022-11-02T14:09:36.895Z,15.20
2022-11-02T14:11:24.514Z,15.30
2022-11-02T14:12:57.532Z,15.30
2022-11-02T14:14:30.239Z,15.30
2022-11-02T14:16:03.049Z,15.20
2022-11-02T14:17:50.775Z,15.20
2022-11-02T14:19:24.714Z,15.10
2022-11-02T14:20:57.740Z,15.10
2022-11-02T14:22:31.139Z,15.00
2022-11-02T14:24:03.859Z,15.00
2022-11-02T14:25:49.174Z,14.90
2022-11-02T14:27:29.334Z,14.90
2022-11-02T14:29:06.546Z,14.90
2022-11-02T14:30:45.481Z,14.80
2022-11-02T14:32:20.838Z,14.80
2022-11-02T14:33:57.063Z,14.80
2022-11-02T14:35:36.430Z,14.70
2022-11-02T14:37:26.950Z,14.70
2022-11-02T14:40:41.893Z,14.60
2022-11-02T14:42:34.060Z,14.60
2022-11-02T14:44:21.972Z,14.50
2022-11-02T14:46:06.571Z,14.40
2022-11-02T14:47:42.238Z,14.30
2022-11-02T14:49:20.040Z,14.30
2022-11-02T14:51:01.789Z,14.20
2022-11-02T14:52:35.436Z,14.10
2022-11-02T14:54:16.293Z,14.10
2022-11-02T14:55:53.467Z,14.00
2022-11-02T14:57:29.587Z,14.00
2022-11-02T14:59:03.746Z,13.90
2022-11-02T15:00:38.384Z,13.90
2022-11-02T15:02:16.251Z,13.80
2022-11-02T15:03:49.751Z,13.80
2022-11-02T15:05:24.495Z,13.70
2022-11-02T15:06:58.404Z,13.60
2022-11-02T15:08:32.493Z,13.50
2022-11-02T15:10:08.332Z,13.50
2022-11-02T15:11:51.032Z,13.40
2022-11-02T15:13:24.872Z,13.40
2022-11-02T15:15:02.039Z,13.30
2022-11-02T15:16:42.105Z,13.20
2022-11-02T15:18:22.706Z,13.20
2022-11-02T15:20:18.095Z,13.10
2022-11-02T15:21:52.233Z,13.00
2022-11-02T15:23:31.129Z,12.90
2022-11-02T15:25:06.738Z,12.90
2022-11-02T15:26:42.664Z,12.80
2022-11-02T15:28:16.783Z,12.80
2022-11-02T15:29:50.698Z,12.70
2022-11-02T15:31:26.411Z,12.70
2022-11-02T15:33:02.150Z,12.60
2022-11-02T15:34:37.805Z,12.60
2022-11-02T15:36:17.017Z,12.50
2022-11-02T15:38:16.010Z,12.50
2022-11-02T15:39:49.097Z,12.40
2022-11-02T15:41:26.183Z,12.30
2022-11-02T15:43:03.408Z,12.20
2022-11-02T15:44:51.259Z,12.10
2022-11-02T15:46:29.854Z,12.00
2022-11-02T15:48:06.044Z,11.90
2022-11-02T15:50:02.180Z,11.90
2022-11-02T15:51:38.775Z,11.80
2022-11-02T15:56:39.271Z,11.70
2022-11-02T16:00:37.929Z,11.50
2022-11-02T16:02:18.671Z,11.40
2022-11-02T16:03:58.057Z,11.30
2022-11-02T16:05:33.037Z,11.30
2022-11-02T16:07:06.702Z,11.20
2022-11-02T16:08:39.420Z,11.10
2022-11-02T16:10:13.568Z,11.10
2022-11-02T16:11:46.381Z,11.10
2022-11-02T16:13:20.710Z,11.00
2022-11-02T16:14:55.771Z,11.00
2022-11-02T16:16:34.677Z,11.00
2022-11-02T16:18:21.801Z,10.90
2022-11-02T16:20:08.977Z,10.80
2022-11-02T16:21:41.823Z,10.70
2022-11-02T16:23:20.112Z,10.70
2022-11-02T16:24:53.474Z,10.60
2022-11-02T16:26:27.228Z,10.60
2022-11-02T16:28:02.853Z,10.50
2022-11-02T16:29:36.144Z,10.50
2022-11-02T16:31:18.828Z,10.50
2022-11-02T16:32:55.054Z,10.50
2022-11-02T16:34:29.654Z,10.40
2022-11-02T16:36:02.735Z,10.40
2022-11-02T16:37:36.107Z,10.40
2022-11-02T16:39:16.946Z,10.30
2022-11-02T16:40:49.898Z,10.30
2022-11-02T16:42:23.566Z,10.30
2022-11-02T16:43:57.041Z,10.20
2022-11-02T16:45:32.204Z,10.20
2022-11-02T16:47:17.365Z,10.10
2022-11-02T16:49:13.076Z,10.10
2022-11-02T16:51:02.072Z,10.10
2022-11-02T16:52:35.775Z,10.10
2022-11-02T16:54:20.610Z,10.00
2022-11-02T16:55:53.810Z,9.90
2022-11-02T16:57:27.600Z,9.90
2022-11-02T16:59:02.223Z,9.80
2022-11-02T17:00:35.163Z,9.80
2022-11-02T17:02:11.863Z,9.80
2022-11-02T17:03:44.779Z,9.80
2022-11-02T17:05:20.567Z,9.80
2022-11-02T17:06:55.167Z,9.80
2022-11-02T17:08:29.812Z,9.80
2022-11-02T17:10:03.862Z,9.90
2022-11-02T17:11:41.374Z,9.90
2022-11-02T17:13:21.311Z,9.80
2022-11-02T17:14:54.841Z,9.80
2022-11-02T17:16:27.614Z,9.80
2022-11-02T17:18:23.654Z,9.80
2022-11-02T17:19:57.411Z,9.70
2022-11-02T17:21:31.740Z,9.70
2022-11-02T17:23:05.945Z,9.60
2022-11-02T17:24:39.081Z,9.50
2022-11-02T17:26:26.556Z,9.50
2022-11-02T17:27:59.759Z,9.50
2022-11-02T17:29:35.541Z,9.50
2022-11-02T17:31:17.499Z,9.50
2022-11-02T17:32:50.360Z,9.40
2022-11-02T17:34:23.437Z,9.40
2022-11-02T17:35:57.564Z,9.40
2022-11-02T17:37:32.340Z,9.30
2022-11-02T17:39:05.865Z,9.30
2022-11-02T17:40:37.847Z,9.30
2022-11-02T17:42:28.351Z,9.30
2022-11-02T17:44:01.419Z,9.20
2022-11-02T17:45:37.248Z,9.20
2022-11-02T17:47:12.135Z,9.20
2022-11-02T17:48:45.151Z,9.10
2022-11-02T17:50:18.233Z,9.00
2022-11-02T17:51:50.991Z,9.10
2022-11-02T17:53:25.826Z,9.00
2022-11-02T17:54:59.151Z,9.00
2022-11-02T17:56:31.911Z,9.00
2022-11-02T17:58:06.791Z,9.00
2022-11-02T17:59:40.149Z,9.00
2022-11-02T18:01:13.490Z,8.90
2022-11-02T18:02:48.984Z,8.90
2022-11-02T18:04:21.825Z,8.90
2022-11-02T18:05:59.796Z,8.80
2022-11-02T18:07:33.435Z,8.80
2022-11-02T18:09:14.634Z,8.80
2022-11-02T18:10:48.282Z,8.70
2022-11-02T18:12:21.189Z,8.70
2022-11-02T18:13:54.286Z,8.70
2022-11-02T18:15:28.011Z,8.70
2022-11-02T18:17:00.877Z,8.70
2022-11-02T18:18:33.704Z,8.70
2022-11-02T18:20:07.246Z,8.70
2022-11-02T18:21:40.075Z,8.60
2022-11-02T18:23:15.536Z,8.60
2022-11-02T18:24:49.811Z,8.50
2022-11-02T18:26:22.783Z,8.50
2022-11-02T18:27:55.579Z,8.50
2022-11-02T18:29:28.473Z,8.50
2022-11-02T18:31:01.398Z,8.50
2022-11-02T18:32:36.858Z,8.50
2022-11-02T18:34:10.631Z,8.50
2022-11-02T18:35:44.267Z,8.40
2022-11-02T18:37:17.136Z,8.40
2022-11-02T18:38:50.006Z,8.40
2022-11-02T18:40:24.176Z,8.40
2022-11-02T18:41:56.931Z,8.30
2022-11-02T18:43:30.305Z,8.30
2022-11-02T18:45:03.267Z,8.30
2022-11-02T18:46:36.241Z,8.30
2022-11-02T18:48:09.721Z,8.20
2022-11-02T18:49:42.864Z,8.20
2022-11-02T18:51:15.691Z,8.20
2022-11-02T18:52:49.637Z,8.20
2022-11-02T18:54:22.376Z,8.10
2022-11-02T18:56:03.160Z,8.10
2022-11-02T18:57:36.109Z,8.00
2022-11-02T18:59:09.033Z,8.00
2022-11-02T19:00:41.913Z,8.00
2022-11-02T19:02:14.866Z,8.00
2022-11-02T19:03:51.740Z,7.90
2022-11-02T19:05:41.348Z,7.90
2022-11-02T19:07:34.747Z,7.90
2022-11-02T19:09:20.182Z,7.90
2022-11-02T19:10:53.414Z,7.90
2022-11-02T19:12:28.312Z,7.80
2022-11-02T19:14:01.246Z,7.80
2022-11-02T19:15:41.288Z,7.80
2022-11-02T19:17:16.019Z,7.80
2022-11-02T19:18:48.989Z,7.70
2022-11-02T19:20:21.945Z,7.70
2022-11-02T19:21:55.050Z,7.70
2022-11-02T19:23:27.961Z,7.70
2022-11-02T19:25:02.243Z,7.70
2022-11-02T19:26:35.501Z,7.70
2022-11-02T19:28:09.848Z,7.70
2022-11-02T19:29:42.727Z,7.60
2022-11-02T19:31:15.649Z,7.60
2022-11-02T19:32:48.853Z,7.60
2022-11-02T19:34:22.973Z,7.50
2022-11-02T19:35:56.079Z,7.50
2022-11-02T19:37:33.474Z,7.50
2022-11-02T19:39:09.044Z,7.40
2022-11-02T19:40:41.978Z,7.40
2022-11-02T19:42:14.916Z,7.30
2022-11-02T19:43:49.013Z,7.30
2022-11-02T19:45:21.852Z,7.30
2022-11-02T19:46:55.185Z,7.30
2022-11-02T19:48:27.976Z,7.30
2022-11-02T19:50:00.774Z,7.30
2022-11-02T19:51:33.637Z,7.30
2022-11-02T19:53:06.376Z,7.30
2022-11-02T19:54:39.516Z,7.20
2022-11-02T19:56:12.953Z,7.20
2022-11-02T19:57:46.179Z,7.20
2022-11-02T19:59:20.384Z,7.20
2022-11-02T20:00:53.359Z,7.20
2022-11-02T20:02:26.228Z,7.20
2022-11-02T20:03:59.653Z,7.20
2022-11-02T20:05:32.397Z,7.10
2022-11-02T20:07:05.311Z,7.10
2022-11-02T20:08:38.660Z,7.00
2022-11-02T20:10:11.465Z,7.00
2022-11-02T20:11:45.569Z,7.00
2022-11-02T20:13:18.305Z,7.00
2022-11-02T20:14:52.733Z,7.00
2022-11-02T20:16:26.050Z,7.00
2022-11-02T20:18:18.473Z,6.90
2022-11-02T20:19:51.542Z,6.90
2022-11-02T20:21:31.057Z,7.00
2022-11-02T20:23:06.174Z,7.00
2022-11-02T20:24:39.372Z,7.00
2022-11-02T20:26:13.421Z,7.00
2022-11-02T20:27:46.140Z,7.00
2022-11-02T20:29:18.934Z,7.00
2022-11-02T20:30:53.532Z,6.90
2022-11-02T20:32:26.380Z,6.90
2022-11-02T20:33:59.662Z,6.90
2022-11-02T20:35:32.735Z,6.90
2022-11-02T20:37:07.414Z,6.80
2022-11-02T20:38:40.322Z,6.80
2022-11-02T20:40:13.478Z,6.80
2022-11-02T20:41:46.245Z,6.70
2022-11-02T20:43:19.560Z,6.70
2022-11-02T20:44:52.385Z,6.70
2022-11-02T20:46:45.278Z,6.60
2022-11-02T20:48:20.349Z,6.70
2022-11-02T20:49:53.379Z,6.70
2022-11-02T20:51:26.107Z,6.70
2022-11-02T20:52:59.417Z,6.60
2022-11-02T20:54:32.131Z,6.70
2022-11-02T20:56:05.602Z,6.70
2022-11-02T20:57:38.726Z,6.60
2022-11-02T20:59:13.446Z,6.60
2022-11-02T21:00:46.815Z,6.60
2022-11-02T21:02:22.223Z,6.50
2022-11-02T21:03:55.062Z,6.50
2022-11-02T21:05:27.818Z,6.50
2022-11-02T21:07:00.512Z,6.50
2022-11-02T21:08:34.045Z,6.40
2022-11-02T21:10:07.394Z,6.40
2022-11-02T21:11:58.056Z,6.40
2022-11-02T21:13:48.190Z,6.50
2022-11-02T21:15:20.938Z,6.40
2022-11-02T21:16:52.692Z,6.40
2022-11-02T21:18:27.127Z,6.40
2022-11-02T21:20:14.117Z,6.40
2022-11-02T21:21:58.158Z,6.40
2022-11-02T21:23:32.330Z,6.50
2022-11-02T21:25:05.281Z,6.40
2022-11-02T21:26:38.047Z,6.40